Sunday, October 21, 2018, 7:17 AM EDT
Back to Local

KPSM, Pease Air Force Base / Portsmouth

Location: Portsmouth, NH, United States Lat: 43.083
Local Time: 7:17 AM EDT (11:17 GMT) Lon: -70.817
Time Zone: US/Eastern Elev: 101 ft

Show me the last for .
Show Decoded

2018-10-21 05:56 METAR KPSM 210956Z 34007KT 10SM FEW075 OVC090 08/01 A2961 RMK AO2A SLP029
                 T00760012 =
2018-10-21 04:56 METAR KPSM 210856Z 34005KT 10SM OVC090 07/03 A2959 RMK AO2A SLP022 T00700025
                 53012 =
2018-10-21 03:56 METAR KPSM 210756Z 33006KT 10SM BKN100 OVC130 07/02 A2955 RMK AO2A SLP009
                 T00660023 =
2018-10-21 02:56 METAR KPSM 210656Z 32004KT 10SM BKN095 06/04 A2955 RMK AO2A SLP009 T00570040 =
2018-10-21 01:56 METAR KPSM 210556Z 25003KT 10SM BKN100 06/04 A2956 RMK AO2A SLP012 T00590042
                 10110 20047 53001 =
2018-10-21 00:56 METAR KPSM 210456Z 26003KT 10SM SCT100 05/03 A2955 RMK AO2A SLP009 T00510033
                 401770051 =
2018-10-20 23:56 METAR KPSM 210356Z 00000KT 10SM FEW100 07/05 A2955 RMK AO2A SLP009 T00690047 =
2018-10-20 22:56 METAR KPSM 210256Z 24005KT 10SM FEW100 08/05 A2955 RMK AO2A SLP009 T00820050
                 53006 =
2018-10-20 21:56 METAR KPSM 210156Z 23005KT 10SM FEW100 09/05 A2954 RMK AO2A SLP005 T00870049 =
2018-10-20 20:56 METAR KPSM 210056Z 21004KT 10SM FEW100 10/05 A2953 RMK AO2A SLP002 T01030051 =
2018-10-20 19:56 METAR KPSM 202356Z 23005KT 10SM FEW050 FEW100 11/05 A2954 RMK AO2A SLP005
                 T01110045 10177 20111 53008 =
2018-10-20 18:56 METAR KPSM 202256Z 20004KT 10SM FEW050 FEW100 12/04 A2952 RMK AO2A SLP999
                 T01190044 =
2018-10-20 17:56 METAR KPSM 202156Z 21005KT 10SM FEW050 FEW250 14/04 A2951 RMK AO2A SLP995
                 T01380041 =
2018-10-20 16:56 METAR KPSM 202056Z 23007KT 10SM FEW050 FEW250 16/04 A2951 RMK AO2A SLP995
                 T01630043 55010 =
2018-10-20 15:56 METAR KPSM 201956Z 23013G19KT 10SM FEW050 SCT250 17/05 A2951 RMK AO2A SLP995
                 T01720048 =
2018-10-20 14:56 METAR KPSM 201856Z 26012G20KT 10SM SCT050 16/05 A2952 RMK AO2A SLP999 T01570050
                 =
2018-10-20 13:56 METAR KPSM 201756Z 26009KT 10SM BKN041 BKN050 16/07 A2954 RMK AO2A SLP005
                 T01580065 10168 20135 57019 =
2018-10-20 12:56 METAR KPSM 201656Z 25010KT 10SM SCT036 BKN045 16/07 A2956 RMK AO2A SLP012
                 T01580073 =
2018-10-20 11:56 METAR KPSM 201556Z 24013G20KT 10SM BKN036 BKN045 17/08 A2957 RMK AO2A SLP016
                 T01670076 =
2018-10-20 10:56 METAR KPSM 201456Z 24010G18KT 10SM BKN033 OVC045 15/08 A2960 RMK AO2A SLP026
                 T01470075 58002 =
2018-10-20 09:56 METAR KPSM 201356Z 21014G19KT 10SM FEW029 SCT050 BKN095 15/08 A2961 RMK AO2A
                 SLP029 T01450080 =
2018-10-20 08:56 METAR KPSM 201256Z 22010G17KT 10SM BKN032 OVC060 14/07 A2961 RMK AO2A SLP029
                 T01360069 =
2018-10-20 07:56 METAR KPSM 201156Z 21012G20KT 10SM OVC065 13/06 A2961 RMK AO2A SLP029 T01340063
                 10135 20116 55025 =

Support USWX by starting your Amazon purchase here.